Time;durP1;ratioP1;P1;durP2;ratioP2;P2;SDS_P1;SDS_P2;PMS_P1;PMS_P2;Temp;Humidity;BMP_temperature;BMP_pressure;BME280_temperature;BME280_humidity;BME280_pressure;Samples;Min_cycle;Max_cycle;Signal;HPM_P1;HPM_P2
2022/04/11 00:09:03;;;;;;;10.40;6.60;;;;;;;-1.67;73.99;99546.86;445389;1267;242988;-65
2022/04/11 00:19:09;;;;;;;10.20;6.20;;;;;;;-1.52;74.28;99546.64;447215;1268;141586;-65
2022/04/11 00:29:16;;;;;;;13.30;7.80;;;;;;;-1.35;74.53;99551.20;444806;1268;142600;-65
2022/04/11 00:39:22;;;;;;;9.30;6.30;;;;;;;-1.12;74.86;99557.70;445913;1268;141366;-66
2022/04/11 00:49:27;;;;;;;9.30;6.80;;;;;;;-0.82;74.73;99563.38;447226;1268;141626;-67
2022/04/11 00:59:33;;;;;;;8.90;6.40;;;;;;;-0.57;75.32;99576.50;447976;1268;141675;-65
2022/04/11 01:09:41;;;;;;;10.30;6.40;;;;;;;-0.43;75.33;99583.46;447178;1267;142155;-64
2022/04/11 01:19:46;;;;;;;7.50;5.80;;;;;;;-0.36;75.52;99593.84;447956;1268;141962;-65
2022/04/11 01:29:52;;;;;;;9.40;6.90;;;;;;;-0.65;75.34;99589.90;435339;1271;142111;-66
2022/04/11 01:39:58;;;;;;;8.80;6.00;;;;;;;-1.03;75.66;99591.74;445838;1270;141852;-66
2022/04/11 01:50:05;;;;;;;7.50;5.70;;;;;;;-1.26;76.35;99593.64;447769;1270;141427;-67
2022/04/11 02:00:13;;;;;;;7.60;6.10;;;;;;;-1.27;76.74;99596.92;447920;1268;142112;-65
2022/04/11 02:10:19;;;;;;;7.30;5.40;;;;;;;-1.19;77.17;99599.21;447241;1267;196718;-66
2022/04/11 02:20:25;;;;;;;8.70;6.60;;;;;;;-1.10;77.35;99606.29;435210;1267;141838;-66
2022/04/11 02:30:31;;;;;;;6.20;5.60;;;;;;;-1.03;77.36;99613.05;447998;1268;141732;-66
2022/04/11 02:40:36;;;;;;;8.20;5.10;;;;;;;-0.91;77.51;99614.07;447658;1268;142018;-66
2022/04/11 02:50:43;;;;;;;7.80;5.80;;;;;;;-0.71;77.65;99618.73;447943;1268;141666;-66
2022/04/11 03:00:49;;;;;;;10.10;6.90;;;;;;;-0.59;77.67;99619.37;447239;1267;142714;-66
2022/04/11 03:10:55;;;;;;;6.10;4.60;;;;;;;-0.47;77.51;99620.00;447653;1269;142413;-65
2022/04/11 03:21:01;;;;;;;10.20;6.60;;;;;;;-0.29;77.71;99629.33;440452;1267;142632;-65
2022/04/11 03:31:07;;;;;;;10.00;6.20;;;;;;;-0.14;77.50;99639.89;447010;1269;141487;-66
2022/04/11 03:41:13;;;;;;;9.10;6.40;;;;;;;-0.01;77.47;99649.95;435739;1268;142766;-65
2022/04/11 03:51:20;;;;;;;8.30;6.10;;;;;;;0.09;77.28;99654.93;441002;1267;141649;-66
2022/04/11 04:01:26;;;;;;;10.10;7.30;;;;;;;0.11;77.11;99657.13;440707;1266;142169;-66
2022/04/11 04:11:32;;;;;;;10.00;6.60;;;;;;;0.10;77.40;99658.16;447720;1265;141582;-67
2022/04/11 04:21:38;;;;;;;11.50;6.00;;;;;;;0.18;77.11;99675.92;447128;1267;140968;-66
2022/04/11 04:31:44;;;;;;;9.00;6.40;;;;;;;0.26;77.01;99677.84;447780;1268;142193;-65
2022/04/11 04:41:50;;;;;;;7.90;6.50;;;;;;;0.45;76.76;99685.70;447973;1266;141980;-66
2022/04/11 04:51:56;;;;;;;13.80;6.90;;;;;;;0.57;76.47;99692.20;446741;1267;142425;-66
2022/04/11 05:02:02;;;;;;;10.50;6.60;;;;;;;0.49;76.27;99703.04;446491;1267;141748;-63
2022/04/11 05:12:09;;;;;;;7.30;6.40;;;;;;;0.65;76.39;99705.96;440667;1267;141944;-65
2022/04/11 05:22:16;;;;;;;7.00;5.10;;;;;;;2.37;76.51;99703.40;444392;1266;141049;-63
2022/04/11 05:32:22;;;;;;;5.60;4.60;;;;;;;9.24;71.10;99692.42;447899;1266;142176;-65
2022/04/11 05:42:27;;;;;;;14.70;4.70;;;;;;;10.47;63.75;99696.40;448037;1267;141493;-66
2022/04/11 05:52:33;;;;;;;6.50;4.30;;;;;;;14.18;60.42;99694.54;447199;1267;141980;-66
2022/04/11 06:02:39;;;;;;;13.60;6.00;;;;;;;15.55;54.46;99692.18;447975;1268;144495;-66
2022/04/11 06:12:45;;;;;;;7.70;4.30;;;;;;;11.88;53.97;99702.09;445445;1267;141392;-66
2022/04/11 06:22:51;;;;;;;9.50;5.00;;;;;;;9.73;54.60;99712.76;447830;1269;141296;-66
2022/04/11 06:32:57;;;;;;;6.80;5.10;;;;;;;7.44;56.56;99720.59;448079;1267;141156;-66
2022/04/11 06:43:02;;;;;;;7.00;6.20;;;;;;;6.35;58.27;99727.73;447335;1266;143498;-65
2022/04/11 06:53:09;;;;;;;12.30;8.40;;;;;;;6.01;59.15;99737.35;445346;1267;140909;-65
2022/04/11 07:03:15;;;;;;;14.00;8.40;;;;;;;5.48;60.31;99748.87;447948;1267;143384;-65
2022/04/11 07:13:21;;;;;;;7.50;6.80;;;;;;;5.18;60.99;99748.50;445661;1266;141274;-71
2022/04/11 07:23:28;;;;;;;8.40;5.80;;;;;;;5.95;60.43;99756.34;435771;1267;140879;-64
2022/04/11 07:33:34;;;;;;;7.10;5.90;;;;;;;7.76;59.73;99760.25;431759;1268;140463;-62
2022/04/11 07:43:40;;;;;;;10.00;7.10;;;;;;;7.64;57.56;99761.25;448073;1267;142098;-65
2022/04/11 07:53:46;;;;;;;7.20;5.90;;;;;;;7.48;58.05;99768.64;441754;1267;140778;-63
2022/04/11 08:03:52;;;;;;;6.30;5.70;;;;;;;10.22;55.53;99770.65;434704;1267;139947;-65
2022/04/11 08:13:58;;;;;;;6.20;4.70;;;;;;;12.51;52.98;99770.45;448081;1265;141227;-68
2022/04/11 08:24:04;;;;;;;12.00;5.80;;;;;;;12.94;49.90;99769.95;448110;1267;142621;-66
2022/04/11 08:34:10;;;;;;;5.00;4.60;;;;;;;12.21;48.72;99777.41;447244;1268;141706;-62
2022/04/11 08:44:16;;;;;;;7.50;5.00;;;;;;;10.13;49.72;99788.34;442344;1267;142322;-69
2022/04/11 08:54:22;;;;;;;7.50;6.80;;;;;;;8.59;51.27;99797.29;447920;1268;141700;-62
2022/04/11 09:04:29;;;;;;;8.90;6.50;;;;;;;7.64;53.17;99790.20;437605;1267;140906;-64
2022/04/11 09:14:37;;;;;;;10.30;8.80;;;;;;;7.76;53.58;99786.88;432131;1268;140629;-62
2022/04/11 09:24:43;;;;;;;6.80;6.10;;;;;;;8.95;53.76;99788.41;431515;1268;141306;-60
2022/04/11 09:34:56;;;;;;;8.30;4.90;;;;;;;9.30;51.74;99783.23;431680;1268;142257;-62
2022/04/11 09:45:02;;;;;;;7.10;5.30;;;;;;;9.01;51.70;99784.84;431948;1267;139765;-63
2022/04/11 09:55:29;;;;;;;6.50;6.00;;;;;;;8.13;52.34;99789.56;430797;1268;140788;-63
2022/04/11 10:05:36;;;;;;;9.20;8.20;;;;;;;7.71;53.44;99778.39;432410;1267;141712;-61
2022/04/11 10:15:45;;;;;;;8.00;7.10;;;;;;;7.36;55.58;99779.19;432861;1268;140742;-61
2022/04/11 10:25:54;;;;;;;7.10;5.30;;;;;;;7.71;55.64;99781.52;433339;1268;140639;-62
2022/04/11 10:36:02;;;;;;;4.90;3.70;;;;;;;8.04;55.27;99788.43;433577;1268;140350;-68
2022/04/11 10:46:07;;;;;;;;;;;;;;;9.16;54.08;99788.88;431140;1268;144057;-63
2022/04/11 10:56:13;;;;;;;11.30;6.30;;;;;;;9.23;52.68;99778.61;432442;1267;127451;-70
2022/04/11 11:06:21;;;;;;;9.20;5.60;;;;;;;8.98;52.60;99777.34;432345;1268;140262;-60
2022/04/11 11:16:59;;;;;;;7.30;6.60;;;;;;;7.86;54.12;99772.60;432833;1268;141090;-63
2022/04/11 11:27:07;;;;;;;6.40;4.30;;;;;;;8.08;55.29;99765.22;432647;1268;140951;-64
2022/04/11 11:37:15;;;;;;;5.40;4.80;;;;;;;8.50;54.32;99760.26;432002;1268;141990;-69
2022/04/11 11:47:29;;;;;;;3.90;3.50;;;;;;;8.78;53.37;99751.17;432041;1268;140849;-60
2022/04/11 11:57:42;;;;;;;3.30;3.00;;;;;;;9.16;52.26;99745.58;431827;1268;141242;-58
2022/04/11 12:07:48;;;;;;;9.40;4.20;;;;;;;9.12;52.15;99748.09;432181;1267;245122;-61
2022/04/11 12:18:04;;;;;;;6.30;2.90;;;;;;;8.77;52.11;99745.46;432445;1267;141769;-56
2022/04/11 12:28:18;;;;;;;3.50;2.10;;;;;;;8.81;51.35;99745.56;433364;1268;142686;-62
2022/04/11 12:38:41;;;;;;;2.60;1.80;;;;;;;9.14;50.53;99735.23;432432;1267;140360;-64
2022/04/11 12:49:01;;;;;;;5.80;2.30;;;;;;;9.01;49.24;99729.48;432170;1268;141035;-64
2022/04/11 12:59:08;;;;;;;3.50;2.10;;;;;;;9.47;49.93;99728.14;432860;1268;140800;-63
2022/04/11 13:09:14;;;;;;;2.70;2.00;;;;;;;9.72;48.22;99716.44;433416;1271;141337;-60
2022/04/11 13:19:20;;;;;;;1.60;1.40;;;;;;;8.87;48.37;99712.11;432939;1268;140972;-61
2022/04/11 13:29:26;;;;;;;2.00;1.10;;;;;;;8.52;48.50;99709.41;432179;1268;141341;-62
2022/04/11 13:39:32;;;;;;;2.90;1.60;;;;;;;8.72;47.86;99700.51;432209;1268;140903;-62
2022/04/11 13:49:38;;;;;;;5.00;1.60;;;;;;;9.10;47.96;99708.72;433146;1267;140037;-61
2022/04/11 13:59:48;;;;;;;4.00;2.40;;;;;;;9.40;47.97;99713.50;432046;1268;141759;-58
2022/04/11 14:09:54;;;;;;;3.30;1.80;;;;;;;9.41;48.98;99713.64;430262;1268;144971;-60
2022/04/11 14:20:00;;;;;;;1.40;1.30;;;;;;;9.41;48.68;99710.67;431215;1268;141825;-62
2022/04/11 14:30:07;;;;;;;3.30;2.00;;;;;;;9.08;48.02;99705.20;431493;1268;141182;-59
2022/04/11 14:40:14;;;;;;;4.90;1.70;;;;;;;8.94;47.79;99701.95;431904;1268;140769;-61
2022/04/11 14:50:21;;;;;;;4.50;1.40;;;;;;;8.75;48.17;99699.98;432197;1268;140571;-59
2022/04/11 15:00:27;;;;;;;3.70;1.40;;;;;;;8.63;48.58;99700.98;433100;1268;142738;-60
2022/04/11 15:10:33;;;;;;;3.30;2.40;;;;;;;8.00;49.90;99701.27;431804;1268;141044;-60
2022/04/11 15:20:40;;;;;;;5.50;5.00;;;;;;;6.87;52.61;99720.49;431930;1269;141380;-63
2022/04/11 15:30:46;;;;;;;1.90;1.70;;;;;;;6.09;54.55;99722.05;431669;1267;143456;-59
2022/04/11 15:40:52;;;;;;;1.50;1.40;;;;;;;5.85;55.77;99704.09;432280;1268;140219;-55
2022/04/11 15:50:58;;;;;;;4.70;1.80;;;;;;;6.34;56.20;99695.59;431441;1268;141081;-60
2022/04/11 16:01:09;;;;;;;13.60;6.30;;;;;;;6.38;56.35;99696.29;433354;1268;143886;-60
2022/04/11 16:11:15;;;;;;;25.50;12.40;;;;;;;6.10;57.28;99697.00;439082;1268;142885;-59
2022/04/11 16:21:21;;;;;;;9.30;6.60;;;;;;;5.99;57.93;99699.70;433942;1270;140539;-58
2022/04/11 16:31:27;;;;;;;12.60;7.20;;;;;;;6.05;58.40;99700.02;432087;1268;140999;-64
2022/04/11 16:41:33;;;;;;;16.40;7.50;;;;;;;6.07;58.56;99695.55;432809;1268;142142;-57
2022/04/11 16:51:40;;;;;;;10.40;6.40;;;;;;;6.02;59.02;99703.27;431284;1271;141352;-56
2022/04/11 17:01:46;;;;;;;4.20;2.50;;;;;;;5.78;59.38;99740.20;430795;1268;141698;-60
2022/04/11 17:11:52;;;;;;;2.90;1.40;;;;;;;5.16;60.07;99742.30;431590;1271;142630;-58
2022/04/11 17:21:58;;;;;;;2.00;1.60;;;;;;;4.75;60.26;99743.71;430560;1268;142614;-59
2022/04/11 17:32:05;;;;;;;3.20;2.30;;;;;;;4.62;61.05;99741.57;431717;1271;141374;-58
2022/04/11 17:42:10;;;;;;;;;;;;;;;4.55;61.76;99747.89;432310;1269;142308;-58
2022/04/11 17:52:16;;;;;;;8.10;5.50;;;;;;;4.50;61.92;99743.77;430773;1271;128142;-58
2022/04/11 18:02:22;;;;;;;41.90;20.70;;;;;;;4.42;62.22;99752.52;431138;1268;143279;-59
2022/04/11 18:12:28;;;;;;;33.60;20.20;;;;;;;4.43;63.34;99768.64;431169;1271;142366;-58
2022/04/11 18:22:34;;;;;;;42.50;25.10;;;;;;;4.31;63.83;99780.98;430965;1270;141830;-59
2022/04/11 18:32:41;;;;;;;41.00;28.00;;;;;;;4.21;64.64;99786.36;431552;1271;141390;-60
2022/04/11 18:42:47;;;;;;;69.00;43.80;;;;;;;4.15;65.24;99801.29;430763;1268;141293;-59
2022/04/11 18:52:53;;;;;;;54.90;36.40;;;;;;;4.10;65.60;99807.87;431825;1269;141113;-60
2022/04/11 19:02:59;;;;;;;52.90;34.40;;;;;;;4.03;65.51;99811.90;431506;1268;141484;-61
2022/04/11 19:13:05;;;;;;;65.60;42.90;;;;;;;3.94;66.32;99810.99;430351;1268;142176;-60
2022/04/11 19:23:12;;;;;;;56.10;42.30;;;;;;;3.91;66.52;99808.67;431253;1271;141117;-59
2022/04/11 19:33:18;;;;;;;64.10;42.90;;;;;;;3.88;67.08;99813.10;431222;1271;142592;-58
2022/04/11 19:43:24;;;;;;;51.40;34.30;;;;;;;3.81;67.66;99817.14;441491;1268;141414;-59
2022/04/11 19:53:30;;;;;;;58.60;39.10;;;;;;;3.74;68.07;99815.98;431687;1268;142493;-58
2022/04/11 20:03:37;;;;;;;65.40;44.50;;;;;;;3.66;68.03;99811.73;433073;1270;144182;-56
2022/04/11 20:13:44;;;;;;;82.50;53.40;;;;;;;3.57;68.54;99814.44;433461;1268;195506;-59
2022/04/11 20:23:49;;;;;;;;;;;;;;;3.50;68.63;99813.59;431376;1268;142162;-59
2022/04/11 20:33:55;;;;;;;68.80;45.50;;;;;;;3.45;69.14;99819.99;440824;1270;127470;-67
2022/04/11 20:44:01;;;;;;;68.60;48.60;;;;;;;3.37;69.47;99819.70;442538;1269;142043;-64
2022/04/11 20:55:38;;;;;;;65.70;45.60;;;;;;;3.21;69.67;99815.52;433685;1268;141066;-65
2022/04/11 21:04:35;;;;;;;70.80;47.00;;;;;;;2.94;70.10;99814.40;432013;1269;141365;-65
2022/04/11 21:14:41;;;;;;;70.30;46.80;;;;;;;2.65;70.64;99812.80;433397;1268;145726;-65
2022/04/11 21:24:48;;;;;;;65.50;46.90;;;;;;;2.34;71.10;99812.23;432111;1270;141947;-64
2022/04/11 21:34:54;;;;;;;63.80;41.90;;;;;;;2.13;71.63;99818.82;432939;1269;140968;-64
2022/04/11 21:45:00;;;;;;;58.70;41.20;;;;;;;1.95;71.87;99824.09;432796;1268;142792;-64
2022/04/11 21:55:07;;;;;;;62.70;39.40;;;;;;;1.80;72.26;99826.70;430912;1268;142204;-66
2022/04/11 22:05:13;;;;;;;58.80;42.30;;;;;;;1.78;72.45;99826.74;433397;1268;142481;-65
2022/04/11 22:15:20;;;;;;;53.50;41.10;;;;;;;1.76;72.80;99833.88;431446;1267;141725;-67
2022/04/11 22:25:26;;;;;;;60.90;42.10;;;;;;;1.72;73.15;99836.89;432428;1268;142516;-65
2022/04/11 22:35:32;;;;;;;61.30;43.30;;;;;;;1.74;73.35;99841.17;431836;1268;141549;-66
2022/04/11 22:45:38;;;;;;;55.40;40.60;;;;;;;1.80;73.58;99840.86;430603;1268;145282;-63
2022/04/11 22:55:44;;;;;;;57.30;39.30;;;;;;;1.82;73.67;99841.33;432384;1268;141059;-65
2022/04/11 23:05:50;;;;;;;65.90;43.60;;;;;;;1.85;73.93;99846.27;432495;1267;141638;-66
2022/04/11 23:15:56;;;;;;;58.10;40.70;;;;;;;1.88;74.05;99840.84;432186;1268;182930;-66
2022/04/11 23:26:02;;;;;;;58.30;41.60;;;;;;;1.83;74.21;99842.68;431791;1267;141631;-65
2022/04/11 23:36:09;;;;;;;60.50;44.30;;;;;;;1.72;74.44;99835.01;432511;1268;141696;-61
2022/04/11 23:46:15;;;;;;;57.30;41.90;;;;;;;1.59;74.76;99834.95;431986;1270;143370;-60
2022/04/11 23:56:21;;;;;;;53.90;39.80;;;;;;;1.56;74.90;99836.23;432273;1267;141177;-63
